EZY9VJ EGGW-ELLX
Flight info
| Callsign | EZY9VJ |
|---|---|
| Flight time | N/A |
| Altitude | 35000 |
| Route | EGGW/07 MATC2C MATCH Q295 BRAIN P44 DAGGA M85 ITVIP L10 DVR L9 KONAN UL607 REMBA REMB3D ELLX/DIK I24 Y |
| Aircraft | A319/M-SDE3FGHIRWY/LB1 |
Departure
| Time | 2026-05-04 16:48 |
|---|---|
| Airport | London Luton Airport (EGGW) |
Arrival
| Time | N/A |
|---|---|
| Airport | Luxembourg-Findel International Airport (ELLX) |
| Time | Latitude | Longitude | Altitude | Speed | Heading |
|---|---|---|---|---|---|
| 2026-05-04 16:26 | 51.88018 | -0.37824 | 523 ft | 0 kts | 128° |
| 2026-05-04 16:31 | 51.88064 | -0.37876 | 523 ft | 3 kts | 218° |
| 2026-05-04 16:32 | 51.88076 | -0.37861 | 523 ft | 3 kts | 218° |
| 2026-05-04 16:33 | 51.88076 | -0.37860 | 523 ft | 0 kts | 218° |
| 2026-05-04 16:35 | 51.88077 | -0.37860 | 523 ft | 0 kts | 218° |
| 2026-05-04 16:38 | 51.88035 | -0.37912 | 523 ft | 10 kts | 218° |
| 2026-05-04 16:39 | 51.87842 | -0.37984 | 523 ft | 9 kts | 149° |
| 2026-05-04 16:39 | 51.87766 | -0.37797 | 523 ft | 11 kts | 115° |
| 2026-05-04 16:40 | 51.87679 | -0.37516 | 521 ft | 15 kts | 133° |
| 2026-05-04 16:40 | 51.87507 | -0.37524 | 522 ft | 14 kts | 244° |
| 2026-05-04 16:41 | 51.87454 | -0.37826 | 523 ft | 15 kts | 253° |
| 2026-05-04 16:41 | 51.87352 | -0.38079 | 523 ft | 0 kts | 205° |
| 2026-05-04 16:47 | 51.87257 | -0.38052 | 524 ft | 4 kts | 82° |
| 2026-05-04 16:47 | 51.87488 | -0.36712 | 528 ft | 146 kts | 73° |
| 2026-05-04 16:48 | 51.88536 | -0.31342 | 2596 ft | 193 kts | 72° |
| 2026-05-04 16:48 | 51.88902 | -0.29150 | 2993 ft | 215 kts | 74° |
| 2026-05-04 16:49 | 51.89620 | -0.23916 | 3949 ft | 263 kts | 91° |
| 2026-05-04 16:49 | 51.87511 | -0.19204 | 5606 ft | 276 kts | 153° |
| 2026-05-04 16:50 | 51.84031 | -0.16772 | 5984 ft | 272 kts | 161° |
| 2026-05-04 16:50 | 51.80503 | -0.14542 | 6004 ft | 272 kts | 159° |
| 2026-05-04 16:51 | 51.77040 | -0.12000 | 6003 ft | 275 kts | 146° |
| 2026-05-04 16:51 | 51.75789 | -0.09690 | 6008 ft | 278 kts | 117° |
| 2026-05-04 16:51 | 51.75554 | -0.03643 | 5999 ft | 280 kts | 82° |
| 2026-05-04 16:52 | 51.76091 | 0.02648 | 5999 ft | 281 kts | 83° |
| 2026-05-04 16:52 | 51.76340 | 0.05670 | 5998 ft | 281 kts | 83° |
| 2026-05-04 16:53 | 51.76864 | 0.12011 | 6004 ft | 281 kts | 83° |
| 2026-05-04 16:53 | 51.77624 | 0.21308 | 6008 ft | 280 kts | 83° |
| 2026-05-04 16:54 | 51.77885 | 0.24495 | 6095 ft | 284 kts | 83° |
| 2026-05-04 16:55 | 51.78925 | 0.37354 | 10089 ft | 296 kts | 84° |
| 2026-05-04 16:55 | 51.79485 | 0.44457 | 11095 ft | 337 kts | 84° |
| 2026-05-04 16:56 | 51.80071 | 0.51938 | 12657 ft | 349 kts | 84° |
| 2026-05-04 16:56 | 51.81011 | 0.63958 | 15019 ft | 364 kts | 84° |
| 2026-05-04 16:57 | 51.81322 | 0.68036 | 15756 ft | 368 kts | 86° |
| 2026-05-04 16:57 | 51.80351 | 0.76036 | 17168 ft | 366 kts | 122° |
| 2026-05-04 16:58 | 51.75566 | 0.83594 | 19003 ft | 369 kts | 140° |
| 2026-05-04 16:58 | 51.74336 | 0.85614 | 19458 ft | 373 kts | 135° |
| 2026-05-04 16:59 | 51.71077 | 0.92190 | 20786 ft | 380 kts | 130° |
| 2026-05-04 17:00 | 51.64375 | 1.05666 | 23385 ft | 390 kts | 135° |
| 2026-05-04 17:00 | 51.58976 | 1.15659 | 24965 ft | 398 kts | 135° |
| 2026-05-04 17:01 | 51.55374 | 1.22335 | 25947 ft | 402 kts | 135° |
| 2026-05-04 17:01 | 51.51691 | 1.29194 | 26917 ft | 407 kts | 136° |
| 2026-05-04 17:02 | 51.47969 | 1.36116 | 27873 ft | 412 kts | 136° |
| 2026-05-04 17:02 | 51.44200 | 1.43106 | 28819 ft | 416 kts | 136° |
| 2026-05-04 17:03 | 51.42296 | 1.46619 | 29271 ft | 419 kts | 136° |
| 2026-05-04 17:03 | 51.40402 | 1.50101 | 29718 ft | 421 kts | 136° |
| 2026-05-04 17:03 | 51.36537 | 1.57209 | 30477 ft | 426 kts | 136° |
| 2026-05-04 17:04 | 51.32615 | 1.64417 | 31097 ft | 432 kts | 136° |
| 2026-05-04 17:04 | 51.28624 | 1.71721 | 31694 ft | 438 kts | 136° |
| 2026-05-04 17:05 | 51.24604 | 1.79063 | 32286 ft | 444 kts | 135° |
| 2026-05-04 17:05 | 51.20538 | 1.86477 | 33095 ft | 444 kts | 135° |
| 2026-05-04 17:06 | 51.16474 | 1.93938 | 33886 ft | 446 kts | 131° |
| 2026-05-04 17:06 | 51.14764 | 1.98097 | 34231 ft | 452 kts | 122° |
| 2026-05-04 17:07 | 51.12735 | 2.07602 | 34885 ft | 464 kts | 103° |
| 2026-05-04 17:07 | 51.12485 | 2.11009 | 34960 ft | 466 kts | 98° |
| 2026-05-04 17:07 | 51.11864 | 2.22863 | 34991 ft | 455 kts | 99° |
| 2026-05-04 17:08 | 51.11033 | 2.37892 | 34989 ft | 454 kts | 99° |
| 2026-05-04 17:09 | 51.10465 | 2.47855 | 34992 ft | 454 kts | 99° |
| 2026-05-04 17:09 | 51.09894 | 2.57828 | 34995 ft | 455 kts | 99° |
| 2026-05-04 17:10 | 51.09013 | 2.67760 | 34994 ft | 449 kts | 110° |
| 2026-05-04 17:10 | 51.06422 | 2.82004 | 34995 ft | 448 kts | 110° |
| 2026-05-04 17:11 | 51.04683 | 2.91559 | 34997 ft | 449 kts | 110° |
| 2026-05-04 17:12 | 51.02081 | 3.05799 | 34988 ft | 448 kts | 110° |
| 2026-05-04 17:13 | 50.97695 | 3.29498 | 34970 ft | 448 kts | 111° |
| 2026-05-04 17:14 | 50.94144 | 3.48449 | 34964 ft | 447 kts | 111° |
| 2026-05-04 17:15 | 50.91480 | 3.62521 | 34956 ft | 446 kts | 111° |
| 2026-05-04 17:16 | 50.87878 | 3.81289 | 34949 ft | 445 kts | 112° |
| 2026-05-04 17:17 | 50.84241 | 3.99972 | 34948 ft | 444 kts | 112° |
| 2026-05-04 17:18 | 50.80883 | 4.17075 | 34948 ft | 443 kts | 112° |
| 2026-05-04 17:18 | 50.79049 | 4.26364 | 34761 ft | 446 kts | 112° |
| 2026-05-04 17:19 | 50.77195 | 4.35691 | 32802 ft | 444 kts | 113° |
| 2026-05-04 17:19 | 50.75350 | 4.44961 | 30653 ft | 441 kts | 112° |
| 2026-05-04 17:20 | 50.73507 | 4.54163 | 28318 ft | 436 kts | 112° |
| 2026-05-04 17:20 | 50.71687 | 4.63209 | 26068 ft | 430 kts | 112° |
| 2026-05-04 17:20 | 50.70802 | 4.67737 | 24988 ft | 426 kts | 109° |
| 2026-05-04 17:21 | 50.69141 | 4.76384 | 22902 ft | 416 kts | 108° |
| 2026-05-04 17:21 | 50.67436 | 4.85147 | 20616 ft | 410 kts | 110° |
| 2026-05-04 17:22 | 50.66311 | 4.89254 | 19548 ft | 406 kts | 119° |
| 2026-05-04 17:22 | 50.64837 | 4.92977 | 18535 ft | 402 kts | 127° |
| 2026-05-04 17:23 | 50.59098 | 5.02434 | 15207 ft | 394 kts | 135° |
| 2026-05-04 17:23 | 50.57178 | 5.05411 | 14167 ft | 390 kts | 135° |
| 2026-05-04 17:23 | 50.53437 | 5.11209 | 12689 ft | 364 kts | 135° |
| 2026-05-04 17:24 | 50.51692 | 5.13900 | 12169 ft | 347 kts | 135° |
| 2026-05-04 17:24 | 50.46814 | 5.21401 | 10686 ft | 316 kts | 135° |
| 2026-05-04 17:25 | 50.45226 | 5.23840 | 10196 ft | 313 kts | 135° |
| 2026-05-04 17:25 | 50.42120 | 5.28614 | 9178 ft | 312 kts | 135° |
| 2026-05-04 17:26 | 50.39067 | 5.33298 | 8159 ft | 309 kts | 135° |
| 2026-05-04 17:26 | 50.34485 | 5.40292 | 6979 ft | 293 kts | 136° |
| 2026-05-04 17:27 | 50.31709 | 5.44509 | 6993 ft | 273 kts | 136° |
| 2026-05-04 17:27 | 50.28989 | 5.48638 | 6989 ft | 272 kts | 137° |
| 2026-05-04 17:28 | 50.26263 | 5.52781 | 6995 ft | 273 kts | 137° |
| 2026-05-04 17:29 | 50.22198 | 5.58953 | 6858 ft | 274 kts | 138° |
| 2026-05-04 17:29 | 50.17694 | 5.63940 | 5668 ft | 245 kts | 155° |
| 2026-05-04 17:30 | 50.12597 | 5.68450 | 2134 ft | 306 kts | 153° |
| 2026-05-04 17:31 | 50.09158 | 5.71590 | 1852 ft | 264 kts | 148° |
| 2026-05-04 17:31 | 50.05323 | 5.75738 | 1665 ft | 186 kts | 144° |
| 2026-05-04 17:32 | 50.03634 | 5.77728 | 1885 ft | 118 kts | 143° |
| 2026-05-04 17:33 | 50.02356 | 5.79176 | 1644 ft | 0 kts | 144° |